Svitzer Leixoes — CSXW6 — position and weather

sailwx.info

Track history (hours):
 
Tides and Currents Weather Stations Pressure Air Temp Water Temp Dewpoint Dewpoint Depression Visibility Wind Speed Wind Dir Waves Ship Positions

Svitzer Leixoes

Last reported at 2017-Mar-23 19:24 UTC. Time now 2017-Mar-23 20:02 UTC.
Position N 38°42' W 009°10'.

Length 28 m; draft 3.6 m.

Type: Towing. MMSI: 263622000.

Date/timePositionNaut miles runAvg speedWind from/ knotsBaromVisibWave heightAir tempDewpointWater temp
2017-Mar-23 19:24N 38°42' W 009°10'0 0.0
2017-Mar-23 18:25N 38°42' W 009°10'1 0.9
2017-Mar-23 17:33N 38°42' W 009°11'0 0.4
2017-Mar-23 16:29N 38°42' W 009°10'0 0.3
2017-Mar-23 15:23N 38°42' W 009°10'0 0.0
2017-Mar-23 12:30N 38°42' W 009°10'0 0.0
2017-Mar-23 11:20N 38°42' W 009°10'0 0.0
2017-Mar-23 09:09N 38°42' W 009°10'0 0.0
2017-Mar-23 08:14N 38°42' W 009°10'0 0.0
2017-Mar-23 07:25N 38°42' W 009°10'3 3.8
2017-Mar-23 06:33N 38°44' W 009°06'3 3.0
2017-Mar-23 05:26N 38°42' W 009°10'0 0.0
2017-Mar-23 04:18N 38°42' W 009°10'0 0.0
2017-Mar-23 03:29N 38°42' W 009°10'0 0.0
2017-Mar-23 02:28N 38°42' W 009°10'0 0.0
2017-Mar-23 01:28N 38°42' W 009°10'0 0.0
2017-Mar-23 00:27N 38°42' W 009°10'0 0.0
2017-Mar-22 22:33N 38°42' W 009°10'0 0.1
2017-Mar-22 21:29N 38°42' W 009°10'0 0.1
2017-Mar-22 20:24N 38°42' W 009°10'0 0.0
2017-Mar-22 19:28N 38°42' W 009°10'0 0.0
2017-Mar-22 18:14N 38°42' W 009°10'3 3.0
2017-Mar-22 17:24N 38°41' W 009°12'3 2.9
2017-Mar-22 16:29N 38°42' W 009°09'2 0.9
2017-Mar-22 14:31N 38°41' W 009°11'2 1.6
2017-Mar-22 13:29N 38°42' W 009°10'2 1.9
2017-Mar-22 12:31N 38°40' W 009°09'0 0.0
2017-Mar-22 11:28N 38°40' W 009°09'0 0.0
2017-Mar-22 10:16N 38°40' W 009°09'0 0.6
2017-Mar-22 09:32N 38°40' W 009°09'2 2.0
2017-Mar-22 08:24N 38°42' W 009°10'1 1.6
2017-Mar-22 07:31N 38°41' W 009°11'1 1.1
2017-Mar-22 06:33N 38°42' W 009°10'0 0.4
2017-Mar-22 05:33N 38°42' W 009°10'0 0.0
2017-Mar-22 04:33N 38°42' W 009°10'0 0.0
2017-Mar-22 03:21N 38°42' W 009°10'0 0.0
2017-Mar-22 02:31N 38°42' W 009°10'1 1.2
2017-Mar-22 01:33N 38°42' W 009°08'2 0.7
2017-Mar-21 23:22N 38°43' W 009°07'5 6.4
2017-Mar-21 22:33N 38°41' W 009°13'2 2.1
2017-Mar-21 21:34N 38°42' W 009°10'0 0.1
2017-Mar-21 20:33N 38°42' W 009°10'1 0.5
2017-Mar-21 19:24N 38°42' W 009°10'0 0.0
2017-Mar-21 18:30N 38°42' W 009°10'2 2.2
2017-Mar-21 17:33N 38°40' W 009°09'4 3.6
2017-Mar-21 16:33N 38°41' W 009°13'1 0.7
2017-Mar-21 15:33N 38°40' W 009°14'0 0.1
2017-Mar-21 14:33N 38°40' W 009°14'1 0.5
2017-Mar-21 13:30N 38°41' W 009°15'4 4.0
2017-Mar-21 12:26N 38°42' W 009°10'0 0.0
2017-Mar-21 11:13N 38°42' W 009°10'0 0.0
2017-Mar-21 10:17N 38°42' W 009°10'2 2.6
2017-Mar-21 09:33N 38°41' W 009°08'2 1.9
2017-Mar-21 08:32N 38°42' W 009°10'1 0.5
2017-Mar-21 07:31N 38°42' W 009°11'1 0.9
2017-Mar-21 06:32N 38°42' W 009°10'0 0.0
2017-Mar-21 05:14N 38°42' W 009°10'0 0.0
2017-Mar-21 04:31N 38°42' W 009°10'0 0.0
2017-Mar-21 03:22N 38°42' W 009°10'0 0.0
2017-Mar-21 02:33N 38°42' W 009°10'0 0.0
2017-Mar-21 00:28N 38°42' W 009°10'0 0.0
2017-Mar-20 23:32N 38°42' W 009°10'0 0.0
2017-Mar-20 22:08N 38°42' W 009°10'1 0.6
2017-Mar-20 20:14N 38°42' W 009°11'3 4.3
2017-Mar-20 19:33N 38°41' W 009°14'0 0.1
2017-Mar-20 18:25N 38°41' W 009°14'1 1.0
2017-Mar-20 17:33N 38°41' W 009°13'3 1.0
2017-Mar-20 14:29N 38°42' W 009°10'0 0.0
2017-Mar-20 13:30N 38°42' W 009°10'0 0.0
2017-Mar-20 12:22N 38°42' W 009°10'0 0.0
2017-Mar-20 10:23N 38°42' W 009°10'2 2.1
2017-Mar-20 09:30N 38°40' W 009°09'2 1.6
2017-Mar-20 08:19N 38°42' W 009°10'0 0.0
2017-Mar-20 05:14N 38°42' W 009°10'0 0.0
2017-Mar-20 04:05N 38°42' W 009°10'0 0.0
2017-Mar-20 03:08N 38°42' W 009°10'0 0.0
2017-Mar-20 02:30N 38°42' W 009°10'0 0.0
2017-Mar-20 01:33N 38°42' W 009°10'0 0.0
2017-Mar-19 23:28N 38°42' W 009°10'0 0.0
2017-Mar-19 22:33N 38°42' W 009°10'0 0.0
2017-Mar-19 21:33N 38°42' W 009°10'0 0.0
2017-Mar-19 20:31N 38°42' W 009°10'0 0.0
2017-Mar-19 19:32N 38°42' W 009°10'0 0.0
2017-Mar-19 18:28N 38°42' W 009°10'0 0.0
2017-Mar-19 17:25N 38°42' W 009°10'0 0.0
2017-Mar-19 16:31N 38°42' W 009°10'0 0.0
2017-Mar-19 14:11N 38°42' W 009°10'0 0.0
2017-Mar-19 13:21N 38°42' W 009°10'0 0.0
2017-Mar-19 12:25N 38°42' W 009°10'0 0.0
2017-Mar-19 11:25N 38°42' W 009°10'0 0.0
2017-Mar-19 10:30N 38°42' W 009°10'0 0.0
2017-Mar-19 09:26N 38°42' W 009°10'2 2.5
2017-Mar-19 08:33N 38°41' W 009°12'2 2.2
2017-Mar-19 07:30N 38°42' W 009°10'0 0.0
2017-Mar-19 06:31N 38°42' W 009°10'0 0.0
2017-Mar-19 05:24N 38°42' W 009°10'0 0.0
2017-Mar-19 04:32N 38°42' W 009°10'0 0.0
2017-Mar-19 03:23N 38°42' W 009°10'0 0.0
2017-Mar-19 02:33N 38°42' W 009°10'0 0.0
2017-Mar-19 01:27N 38°42' W 009°10'0 0.0
2017-Mar-19 00:23N 38°42' W 009°10'0 0.0
2017-Mar-18 23:20N 38°42' W 009°10'0 0.0
2017-Mar-18 22:29N 38°42' W 009°10'0 0.0
2017-Mar-18 21:24N 38°42' W 009°10'0 0.0
2017-Mar-18 20:21N 38°42' W 009°10'0 0.0
2017-Mar-18 19:30N 38°42' W 009°10'0 0.0
2017-Mar-18 17:31N 38°42' W 009°10'0 0.0
2017-Mar-18 16:31N 38°42' W 009°10'0 0.0
2017-Mar-18 15:24N 38°42' W 009°10'0 0.0
2017-Mar-18 14:26N 38°42' W 009°10'0 0.0
2017-Mar-18 13:31N 38°42' W 009°10'0 0.0
2017-Mar-18 12:30N 38°42' W 009°10'0 0.0
2017-Mar-18 11:26N 38°42' W 009°10'0 0.0
2017-Mar-18 10:27N 38°42' W 009°10'0 0.0
2017-Mar-18 09:29N 38°42' W 009°10'0 0.0
2017-Mar-18 08:23N 38°42' W 009°10'0 0.0
2017-Mar-18 07:27N 38°42' W 009°10'0 0.0
2017-Mar-18 06:33N 38°42' W 009°10'0 0.2
2017-Mar-18 05:34N 38°42' W 009°09'0 0.2
2017-Mar-18 04:31N 38°42' W 009°10'0 0.0
2017-Mar-18 03:23N 38°42' W 009°10'0 0.0
2017-Mar-18 02:24N 38°42' W 009°10'0 0.0
2017-Mar-18 01:24N 38°42' W 009°10'0 0.0
2017-Mar-18 00:33N 38°42' W 009°10'0 0.0
2017-Mar-17 23:30N 38°42' W 009°10'0 0.0
2017-Mar-17 22:21N 38°42' W 009°10'0 0.0
2017-Mar-17 21:31N 38°42' W 009°10'0 0.0
2017-Mar-17 20:29N 38°42' W 009°10'0 0.0
2017-Mar-17 19:32N 38°42' W 009°10'0 0.0
2017-Mar-17 18:33N 38°42' W 009°10'1 0.8
2017-Mar-17 17:34N 38°42' W 009°10'1 1.0
2017-Mar-17 16:31N 38°41' W 009°12'2 1.8
2017-Mar-17 15:32N 38°42' W 009°09'0 0.1
2017-Mar-17 14:30N 38°42' W 009°10'0 0.0
2017-Mar-17 13:31N 38°42' W 009°10'0 0.1
2017-Mar-17 12:33N 38°42' W 009°10'2 2.0
2017-Mar-17 11:33N 38°42' W 009°07'1 0.8
2017-Mar-17 10:33N 38°42' W 009°08'1 1.3
2017-Mar-17 09:31N 38°42' W 009°10'0 0.0
2017-Mar-17 08:26N 38°42' W 009°10'0 0.0
2017-Mar-17 07:27N 38°42' W 009°10'0 0.0
2017-Mar-17 06:27N 38°42' W 009°10'0 0.0
2017-Mar-17 05:29N 38°42' W 009°10'0 0.0
2017-Mar-17 04:29N 38°42' W 009°10'0 0.0
2017-Mar-17 03:24N 38°42' W 009°10'0 0.0
2017-Mar-17 02:23N 38°42' W 009°10'0 0.0
2017-Mar-17 01:27N 38°42' W 009°10'0 0.0
2017-Mar-17 00:13N 38°42' W 009°10'0 0.0
2017-Mar-16 22:25N 38°42' W 009°10'0 0.0
2017-Mar-16 21:21N 38°42' W 009°10'0 0.0
2017-Mar-16 19:30N 38°42' W 009°10'1 1.6
2017-Mar-16 18:33N 38°42' W 009°08'0 0.5
2017-Mar-16 17:33N 38°42' W 009°07'2 2.2
2017-Mar-16 16:33N 38°42' W 009°10'1 0.5
2017-Mar-16 15:19N 38°42' W 009°10'0 0.1
2017-Mar-16 14:33N 38°42' W 009°10'0 0.0
2017-Mar-16 13:33N 38°42' W 009°10'0 0.0
2017-Mar-16 12:20N 38°42' W 009°10'0 0.0
2017-Mar-16 11:31N 38°42' W 009°10'0 0.0
2017-Mar-16 10:17N 38°42' W 009°10'0 0.0
2017-Mar-16 09:32N 38°42' W 009°10'0 0.0
2017-Mar-16 08:09N 38°42' W 009°10'0 0.3
2017-Mar-16 07:32N 38°42' W 009°10'0 0.2
2017-Mar-16 06:32N 38°42' W 009°10'4 3.9
2017-Mar-16 05:33N 38°41' W 009°14'0 0.1
2017-Mar-16 04:33N 38°41' W 009°14'4 3.0
2017-Mar-16 03:19N 38°42' W 009°10'0 0.2
2017-Mar-16 02:33N 38°42' W 009°09'1 0.9
2017-Mar-16 01:33N 38°41' W 009°10'1 0.7
2017-Mar-16 00:29N 38°42' W 009°10'0 0.0
2017-Mar-15 23:29N 38°42' W 009°10'0 0.0
2017-Mar-15 22:17N 38°42' W 009°10'0 0.0
2017-Mar-15 21:29N 38°42' W 009°10'2 2.0
2017-Mar-15 20:32N 38°40' W 009°09'2 2.0
2017-Mar-15 19:34N 38°42' W 009°10'0 0.0
2017-Mar-15 18:11N 38°42' W 009°10'0 0.0
2017-Mar-15 17:15N 38°42' W 009°10'0 0.0
2017-Mar-15 16:25N 38°42' W 009°10'0 0.0
2017-Mar-15 15:32N 38°42' W 009°10'0 0.0
2017-Mar-15 14:32N 38°42' W 009°10'0 0.0
2017-Mar-15 13:27N 38°42' W 009°10'0 0.0
2017-Mar-15 12:32N 38°42' W 009°10'2 1.5
2017-Mar-15 11:16N 38°42' W 009°07'2 2.8
2017-Mar-15 10:33N 38°42' W 009°10'0 0.0
2017-Mar-15 09:31N 38°42' W 009°10'0 0.0
2017-Mar-15 08:05N 38°42' W 009°10'0 0.0
2017-Mar-15 07:29N 38°42' W 009°10'0 0.0
2017-Mar-15 06:23N 38°42' W 009°10'0 0.0
2017-Mar-15 05:29N 38°42' W 009°10'0 0.0
2017-Mar-15 04:18N 38°42' W 009°10'0 0.0
2017-Mar-15 03:33N 38°42' W 009°10'0 0.0
2017-Mar-15 02:30N 38°42' W 009°10'0 0.0
2017-Mar-15 01:26N 38°42' W 009°10'0 0.0
2017-Mar-15 00:26N 38°42' W 009°10'0 0.0
2017-Mar-14 23:19N 38°42' W 009°10'0 0.0
2017-Mar-14 22:32N 38°42' W 009°10'0 0.0
2017-Mar-14 21:31N 38°42' W 009°10'0 0.0
2017-Mar-14 20:31N 38°42' W 009°10'2 1.9
2017-Mar-14 19:27N 38°41' W 009°12'1 1.1
2017-Mar-14 18:32N 38°41' W 009°11'1 0.7
2017-Mar-14 17:10N 38°42' W 009°10'0 0.0
2017-Mar-14 16:33N 38°42' W 009°10'0 0.0
2017-Mar-14 15:31N 38°42' W 009°10'2 1.6
2017-Mar-14 14:33N 38°41' W 009°08'2 1.1
2017-Mar-14 13:10N 38°42' W 009°10'0 0.0
2017-Mar-14 12:27N 38°42' W 009°10'0 0.0
2017-Mar-14 11:23N 38°42' W 009°10'0 0.0
2017-Mar-14 10:30N 38°42' W 009°10'0 0.0
2017-Mar-14 09:12N 38°42' W 009°10'0 0.0
2017-Mar-14 08:11N 38°42' W 009°10'0 0.0
2017-Mar-14 07:16N 38°42' W 009°10'0 0.0
2017-Mar-14 06:31N 38°42' W 009°10'0 0.0
2017-Mar-14 05:27N 38°42' W 009°10'0 0.4
2017-Mar-14 04:21N 38°42' W 009°10'1 1.4
2017-Mar-14 03:33N 38°41' W 009°11'2 1.5
2017-Mar-14 02:31N 38°42' W 009°10'2 1.7
2017-Mar-14 01:33N 38°41' W 009°11'2 1.6
2017-Mar-14 00:31N 38°42' W 009°09'0 0.2
2017-Mar-13 23:30N 38°42' W 009°10'3 3.1
2017-Mar-13 22:28N 38°41' W 009°13'0 0.3
2017-Mar-13 21:33N 38°41' W 009°14'4 3.4
2017-Mar-13 20:30N 38°42' W 009°10'  
Track history (hours):
 
Tides and Currents Weather Stations Pressure Air Temp Water Temp Dewpoint Dewpoint Depression Visibility Wind Speed Wind Dir Waves Ship Positions

Svitzer Leixoes

Last reported at 2017-Mar-23 19:24 UTC. Time now 2017-Mar-23 20:02 UTC.
Position N 38°42' W 009°10'.

Length 28 m; draft 3.6 m.

Type: Towing. MMSI: 263622000.

Date/timePositionNaut miles runAvg speedWind from/ knotsBaromVisibWave heightAir tempDewpointWater temp
2017-Mar-23 19:24N 38°42' W 009°10'0 0.0
2017-Mar-23 18:25N 38°42' W 009°10'1 0.9
2017-Mar-23 17:33N 38°42' W 009°11'0 0.4
2017-Mar-23 16:29N 38°42' W 009°10'0 0.3
2017-Mar-23 15:23N 38°42' W 009°10'0 0.0
2017-Mar-23 12:30N 38°42' W 009°10'0 0.0
2017-Mar-23 11:20N 38°42' W 009°10'0 0.0
2017-Mar-23 09:09N 38°42' W 009°10'0 0.0
2017-Mar-23 08:14N 38°42' W 009°10'0 0.0
2017-Mar-23 07:25N 38°42' W 009°10'3 3.8
2017-Mar-23 06:33N 38°44' W 009°06'3 3.0
2017-Mar-23 05:26N 38°42' W 009°10'0 0.0
2017-Mar-23 04:18N 38°42' W 009°10'0 0.0
2017-Mar-23 03:29N 38°42' W 009°10'0 0.0
2017-Mar-23 02:28N 38°42' W 009°10'0 0.0
2017-Mar-23 01:28N 38°42' W 009°10'0 0.0
2017-Mar-23 00:27N 38°42' W 009°10'0 0.0
2017-Mar-22 22:33N 38°42' W 009°10'0 0.1
2017-Mar-22 21:29N 38°42' W 009°10'0 0.1
2017-Mar-22 20:24N 38°42' W 009°10'0 0.0
2017-Mar-22 19:28N 38°42' W 009°10'0 0.0
2017-Mar-22 18:14N 38°42' W 009°10'3 3.0
2017-Mar-22 17:24N 38°41' W 009°12'3 2.9
2017-Mar-22 16:29N 38°42' W 009°09'2 0.9
2017-Mar-22 14:31N 38°41' W 009°11'2 1.6
2017-Mar-22 13:29N 38°42' W 009°10'2 1.9
2017-Mar-22 12:31N 38°40' W 009°09'0 0.0
2017-Mar-22 11:28N 38°40' W 009°09'0 0.0
2017-Mar-22 10:16N 38°40' W 009°09'0 0.6
2017-Mar-22 09:32N 38°40' W 009°09'2 2.0
2017-Mar-22 08:24N 38°42' W 009°10'1 1.6
2017-Mar-22 07:31N 38°41' W 009°11'1 1.1
2017-Mar-22 06:33N 38°42' W 009°10'0 0.4
2017-Mar-22 05:33N 38°42' W 009°10'0 0.0
2017-Mar-22 04:33N 38°42' W 009°10'0 0.0
2017-Mar-22 03:21N 38°42' W 009°10'0 0.0
2017-Mar-22 02:31N 38°42' W 009°10'1 1.2
2017-Mar-22 01:33N 38°42' W 009°08'2 0.7
2017-Mar-21 23:22N 38°43' W 009°07'5 6.4
2017-Mar-21 22:33N 38°41' W 009°13'2 2.1
2017-Mar-21 21:34N 38°42' W 009°10'0 0.1
2017-Mar-21 20:33N 38°42' W 009°10'1 0.5
2017-Mar-21 19:24N 38°42' W 009°10'0 0.0
2017-Mar-21 18:30N 38°42' W 009°10'2 2.2
2017-Mar-21 17:33N 38°40' W 009°09'4 3.6
2017-Mar-21 16:33N 38°41' W 009°13'1 0.7
2017-Mar-21 15:33N 38°40' W 009°14'0 0.1
2017-Mar-21 14:33N 38°40' W 009°14'1 0.5
2017-Mar-21 13:30N 38°41' W 009°15'4 4.0
2017-Mar-21 12:26N 38°42' W 009°10'0 0.0
2017-Mar-21 11:13N 38°42' W 009°10'0 0.0
2017-Mar-21 10:17N 38°42' W 009°10'2 2.6
2017-Mar-21 09:33N 38°41' W 009°08'2 1.9
2017-Mar-21 08:32N 38°42' W 009°10'1 0.5
2017-Mar-21 07:31N 38°42' W 009°11'1 0.9
2017-Mar-21 06:32N 38°42' W 009°10'0 0.0
2017-Mar-21 05:14N 38°42' W 009°10'0 0.0
2017-Mar-21 04:31N 38°42' W 009°10'0 0.0
2017-Mar-21 03:22N 38°42' W 009°10'0 0.0
2017-Mar-21 02:33N 38°42' W 009°10'0 0.0
2017-Mar-21 00:28N 38°42' W 009°10'0 0.0
2017-Mar-20 23:32N 38°42' W 009°10'0 0.0
2017-Mar-20 22:08N 38°42' W 009°10'1 0.6
2017-Mar-20 20:14N 38°42' W 009°11'3 4.3
2017-Mar-20 19:33N 38°41' W 009°14'0 0.1
2017-Mar-20 18:25N 38°41' W 009°14'1 1.0
2017-Mar-20 17:33N 38°41' W 009°13'3 1.0
2017-Mar-20 14:29N 38°42' W 009°10'0 0.0
2017-Mar-20 13:30N 38°42' W 009°10'0 0.0
2017-Mar-20 12:22N 38°42' W 009°10'0 0.0
2017-Mar-20 10:23N 38°42' W 009°10'2 2.1
2017-Mar-20 09:30N 38°40' W 009°09'2 1.6
2017-Mar-20 08:19N 38°42' W 009°10'0 0.0
2017-Mar-20 05:14N 38°42' W 009°10'0 0.0
2017-Mar-20 04:05N 38°42' W 009°10'0 0.0
2017-Mar-20 03:08N 38°42' W 009°10'0 0.0
2017-Mar-20 02:30N 38°42' W 009°10'0 0.0
2017-Mar-20 01:33N 38°42' W 009°10'0 0.0
2017-Mar-19 23:28N 38°42' W 009°10'0 0.0
2017-Mar-19 22:33N 38°42' W 009°10'0 0.0
2017-Mar-19 21:33N 38°42' W 009°10'0 0.0
2017-Mar-19 20:31N 38°42' W 009°10'0 0.0
2017-Mar-19 19:32N 38°42' W 009°10'0 0.0
2017-Mar-19 18:28N 38°42' W 009°10'0 0.0
2017-Mar-19 17:25N 38°42' W 009°10'0 0.0
2017-Mar-19 16:31N 38°42' W 009°10'0 0.0
2017-Mar-19 14:11N 38°42' W 009°10'0 0.0
2017-Mar-19 13:21N 38°42' W 009°10'0 0.0
2017-Mar-19 12:25N 38°42' W 009°10'0 0.0
2017-Mar-19 11:25N 38°42' W 009°10'0 0.0
2017-Mar-19 10:30N 38°42' W 009°10'0 0.0
2017-Mar-19 09:26N 38°42' W 009°10'2 2.5
2017-Mar-19 08:33N 38°41' W 009°12'2 2.2
2017-Mar-19 07:30N 38°42' W 009°10'0 0.0
2017-Mar-19 06:31N 38°42' W 009°10'0 0.0
2017-Mar-19 05:24N 38°42' W 009°10'0 0.0
2017-Mar-19 04:32N 38°42' W 009°10'0 0.0
2017-Mar-19 03:23N 38°42' W 009°10'0 0.0
2017-Mar-19 02:33N 38°42' W 009°10'0 0.0
2017-Mar-19 01:27N 38°42' W 009°10'0 0.0
2017-Mar-19 00:23N 38°42' W 009°10'0 0.0
2017-Mar-18 23:20N 38°42' W 009°10'0 0.0
2017-Mar-18 22:29N 38°42' W 009°10'0 0.0
2017-Mar-18 21:24N 38°42' W 009°10'0 0.0
2017-Mar-18 20:21N 38°42' W 009°10'0 0.0
2017-Mar-18 19:30N 38°42' W 009°10'0 0.0
2017-Mar-18 17:31N 38°42' W 009°10'0 0.0
2017-Mar-18 16:31N 38°42' W 009°10'0 0.0
2017-Mar-18 15:24N 38°42' W 009°10'0 0.0
2017-Mar-18 14:26N 38°42' W 009°10'0 0.0
2017-Mar-18 13:31N 38°42' W 009°10'0 0.0
2017-Mar-18 12:30N 38°42' W 009°10'0 0.0
2017-Mar-18 11:26N 38°42' W 009°10'0 0.0
2017-Mar-18 10:27N 38°42' W 009°10'0 0.0
2017-Mar-18 09:29N 38°42' W 009°10'0 0.0
2017-Mar-18 08:23N 38°42' W 009°10'0 0.0
2017-Mar-18 07:27N 38°42' W 009°10'0 0.0
2017-Mar-18 06:33N 38°42' W 009°10'0 0.2
2017-Mar-18 05:34N 38°42' W 009°09'0 0.2
2017-Mar-18 04:31N 38°42' W 009°10'0 0.0
2017-Mar-18 03:23N 38°42' W 009°10'0 0.0
2017-Mar-18 02:24N 38°42' W 009°10'0 0.0
2017-Mar-18 01:24N 38°42' W 009°10'0 0.0
2017-Mar-18 00:33N 38°42' W 009°10'0 0.0
2017-Mar-17 23:30N 38°42' W 009°10'0 0.0
2017-Mar-17 22:21N 38°42' W 009°10'0 0.0
2017-Mar-17 21:31N 38°42' W 009°10'0 0.0
2017-Mar-17 20:29N 38°42' W 009°10'0 0.0
2017-Mar-17 19:32N 38°42' W 009°10'0 0.0
2017-Mar-17 18:33N 38°42' W 009°10'1 0.8
2017-Mar-17 17:34N 38°42' W 009°10'1 1.0
2017-Mar-17 16:31N 38°41' W 009°12'2 1.8
2017-Mar-17 15:32N 38°42' W 009°09'0 0.1
2017-Mar-17 14:30N 38°42' W 009°10'0 0.0
2017-Mar-17 13:31N 38°42' W 009°10'0 0.1
2017-Mar-17 12:33N 38°42' W 009°10'2 2.0
2017-Mar-17 11:33N 38°42' W 009°07'1 0.8
2017-Mar-17 10:33N 38°42' W 009°08'1 1.3
2017-Mar-17 09:31N 38°42' W 009°10'0 0.0
2017-Mar-17 08:26N 38°42' W 009°10'0 0.0
2017-Mar-17 07:27N 38°42' W 009°10'0 0.0
2017-Mar-17 06:27N 38°42' W 009°10'0 0.0
2017-Mar-17 05:29N 38°42' W 009°10'0 0.0
2017-Mar-17 04:29N 38°42' W 009°10'0 0.0
2017-Mar-17 03:24N 38°42' W 009°10'0 0.0
2017-Mar-17 02:23N 38°42' W 009°10'0 0.0
2017-Mar-17 01:27N 38°42' W 009°10'0 0.0
2017-Mar-17 00:13N 38°42' W 009°10'0 0.0
2017-Mar-16 22:25N 38°42' W 009°10'0 0.0
2017-Mar-16 21:21N 38°42' W 009°10'0 0.0
2017-Mar-16 19:30N 38°42' W 009°10'1 1.6
2017-Mar-16 18:33N 38°42' W 009°08'0 0.5
2017-Mar-16 17:33N 38°42' W 009°07'2 2.2
2017-Mar-16 16:33N 38°42' W 009°10'1 0.5
2017-Mar-16 15:19N 38°42' W 009°10'0 0.1
2017-Mar-16 14:33N 38°42' W 009°10'0 0.0
2017-Mar-16 13:33N 38°42' W 009°10'0 0.0
2017-Mar-16 12:20N 38°42' W 009°10'0 0.0
2017-Mar-16 11:31N 38°42' W 009°10'0 0.0
2017-Mar-16 10:17N 38°42' W 009°10'0 0.0
2017-Mar-16 09:32N 38°42' W 009°10'0 0.0
2017-Mar-16 08:09N 38°42' W 009°10'0 0.3
2017-Mar-16 07:32N 38°42' W 009°10'0 0.2
2017-Mar-16 06:32N 38°42' W 009°10'4 3.9
2017-Mar-16 05:33N 38°41' W 009°14'0 0.1
2017-Mar-16 04:33N 38°41' W 009°14'4 3.0
2017-Mar-16 03:19N 38°42' W 009°10'0 0.2
2017-Mar-16 02:33N 38°42' W 009°09'1 0.9
2017-Mar-16 01:33N 38°41' W 009°10'1 0.7
2017-Mar-16 00:29N 38°42' W 009°10'0 0.0
2017-Mar-15 23:29N 38°42' W 009°10'0 0.0
2017-Mar-15 22:17N 38°42' W 009°10'0 0.0
2017-Mar-15 21:29N 38°42' W 009°10'2 2.0
2017-Mar-15 20:32N 38°40' W 009°09'2 2.0
2017-Mar-15 19:34N 38°42' W 009°10'0 0.0
2017-Mar-15 18:11N 38°42' W 009°10'0 0.0
2017-Mar-15 17:15N 38°42' W 009°10'0 0.0
2017-Mar-15 16:25N 38°42' W 009°10'0 0.0
2017-Mar-15 15:32N 38°42' W 009°10'0 0.0
2017-Mar-15 14:32N 38°42' W 009°10'0 0.0
2017-Mar-15 13:27N 38°42' W 009°10'0 0.0
2017-Mar-15 12:32N 38°42' W 009°10'2 1.5
2017-Mar-15 11:16N 38°42' W 009°07'2 2.8
2017-Mar-15 10:33N 38°42' W 009°10'0 0.0
2017-Mar-15 09:31N 38°42' W 009°10'0 0.0
2017-Mar-15 08:05N 38°42' W 009°10'0 0.0
2017-Mar-15 07:29N 38°42' W 009°10'0 0.0
2017-Mar-15 06:23N 38°42' W 009°10'0 0.0
2017-Mar-15 05:29N 38°42' W 009°10'0 0.0
2017-Mar-15 04:18N 38°42' W 009°10'0 0.0
2017-Mar-15 03:33N 38°42' W 009°10'0 0.0
2017-Mar-15 02:30N 38°42' W 009°10'0 0.0
2017-Mar-15 01:26N 38°42' W 009°10'0 0.0
2017-Mar-15 00:26N 38°42' W 009°10'0 0.0
2017-Mar-14 23:19N 38°42' W 009°10'0 0.0
2017-Mar-14 22:32N 38°42' W 009°10'0 0.0
2017-Mar-14 21:31N 38°42' W 009°10'0 0.0
2017-Mar-14 20:31N 38°42' W 009°10'2 1.9
2017-Mar-14 19:27N 38°41' W 009°12'1 1.1
2017-Mar-14 18:32N 38°41' W 009°11'1 0.7
2017-Mar-14 17:10N 38°42' W 009°10'0 0.0
2017-Mar-14 16:33N 38°42' W 009°10'0 0.0
2017-Mar-14 15:31N 38°42' W 009°10'2 1.6
2017-Mar-14 14:33N 38°41' W 009°08'2 1.1
2017-Mar-14 13:10N 38°42' W 009°10'0 0.0
2017-Mar-14 12:27N 38°42' W 009°10'0 0.0
2017-Mar-14 11:23N 38°42' W 009°10'0 0.0
2017-Mar-14 10:30N 38°42' W 009°10'0 0.0
2017-Mar-14 09:12N 38°42' W 009°10'0 0.0
2017-Mar-14 08:11N 38°42' W 009°10'0 0.0
2017-Mar-14 07:16N 38°42' W 009°10'0 0.0
2017-Mar-14 06:31N 38°42' W 009°10'0 0.0
2017-Mar-14 05:27N 38°42' W 009°10'0 0.4
2017-Mar-14 04:21N 38°42' W 009°10'1 1.4
2017-Mar-14 03:33N 38°41' W 009°11'2 1.5
2017-Mar-14 02:31N 38°42' W 009°10'2 1.7
2017-Mar-14 01:33N 38°41' W 009°11'2 1.6
2017-Mar-14 00:31N 38°42' W 009°09'0 0.2
2017-Mar-13 23:30N 38°42' W 009°10'3 3.1
2017-Mar-13 22:28N 38°41' W 009°13'0 0.3
2017-Mar-13 21:33N 38°41' W 009°14'4 3.4
2017-Mar-13 20:30N 38°42' W 009°10'  

Dump ship's entire track history